Time;durP1;ratioP1;P1;durP2;ratioP2;P2;SDS_P1;SDS_P2;PMS_P1;PMS_P2;Temp;Humidity;BMP_temperature;BMP_pressure;BME280_temperature;BME280_humidity;BME280_pressure;Samples;Min_cycle;Max_cycle;Signal;HPM_P1;HPM_P2
2023/04/03 00:05:25;;;;;;;1999.90;999.90;;;4.80;99.90;;;;;;6631092;88;20232;-76
2023/04/03 00:15:25;;;;;;;1999.90;999.90;;;4.80;99.90;;;;;;6621630;88;20240;-77
2023/04/03 00:25:26;;;;;;;1999.90;999.90;;;4.90;99.90;;;;;;6622238;89;20748;-77
2023/04/03 00:35:28;;;;;;;1999.90;999.90;;;4.70;99.90;;;;;;6679767;88;20247;-76
2023/04/03 00:45:39;;;;;;;1999.90;999.90;;;4.80;99.90;;;;;;6675658;88;20179;-76
2023/04/03 00:55:41;;;;;;;1999.90;999.90;;;4.80;99.90;;;;;;6674315;89;20180;-77
2023/04/03 01:05:41;;;;;;;1999.90;999.90;;;4.80;99.90;;;;;;6671919;88;20305;-76
2023/04/03 01:25:52;;;;;;;1999.90;999.90;;;4.60;99.90;;;;;;6604560;90;20576;-79
2023/04/03 01:35:53;;;;;;;1999.90;999.90;;;4.60;99.90;;;;;;6609931;89;21658;-81
2023/04/03 01:45:54;;;;;;;1999.90;999.90;;;4.50;99.90;;;;;;6605783;90;20191;-79
2023/04/03 01:55:55;;;;;;;1999.90;999.90;;;4.60;99.90;;;;;;6602363;90;20233;-80
2023/04/03 02:05:55;;;;;;;1999.90;999.90;;;4.50;99.90;;;;;;6602175;90;20505;-80
2023/04/03 02:15:56;;;;;;;1999.90;999.90;;;4.50;99.90;;;;;;6603188;89;20238;-79
2023/04/03 02:26:08;;;;;;;1999.90;999.90;;;4.50;99.90;;;;;;6625512;89;20199;-80
2023/04/03 02:36:09;;;;;;;1999.90;999.90;;;4.30;99.90;;;;;;6615974;89;20182;-79
2023/04/03 02:46:10;;;;;;;1999.90;999.90;;;4.30;99.90;;;;;;6634871;88;20759;-79
2023/04/03 02:56:10;;;;;;;1999.90;999.90;;;4.20;99.90;;;;;;6630567;89;20213;-79
2023/04/03 03:06:13;;;;;;;1999.90;999.90;;;4.00;99.90;;;;;;6661160;88;20527;-81
2023/04/03 03:16:14;;;;;;;1999.90;999.90;;;4.10;99.90;;;;;;6646386;88;20269;-80
2023/04/03 03:26:15;;;;;;;1999.90;999.90;;;3.80;99.90;;;;;;6649488;88;20193;-79
2023/04/03 03:36:16;;;;;;;1999.90;999.90;;;3.80;99.90;;;;;;6667264;88;20237;-79
2023/04/03 03:46:16;;;;;;;1999.90;999.90;;;3.80;99.90;;;;;;6670067;88;20182;-79
2023/04/03 03:56:17;;;;;;;1999.90;999.90;;;3.70;99.90;;;;;;6648583;88;20199;-79
2023/04/03 04:06:17;;;;;;;1999.90;999.90;;;3.50;99.90;;;;;;6649107;88;20949;-78
2023/04/03 04:16:18;;;;;;;1999.90;999.90;;;3.40;99.90;;;;;;6664495;88;20239;-78
2023/04/03 04:26:18;;;;;;;1999.90;999.90;;;3.10;99.90;;;;;;6646833;89;20201;-79
2023/04/03 04:36:19;;;;;;;1999.90;999.90;;;2.80;99.90;;;;;;6642243;88;20279;-79
2023/04/03 04:46:20;;;;;;;1999.90;999.90;;;2.70;99.90;;;;;;6638440;88;20215;-79
2023/04/03 04:56:20;;;;;;;1999.90;999.90;;;2.60;99.90;;;;;;6635775;88;20716;-80
2023/04/03 05:06:21;;;;;;;1999.90;999.90;;;2.40;99.90;;;;;;6633026;89;20509;-80
2023/04/03 05:16:22;;;;;;;1999.90;999.90;;;2.20;99.90;;;;;;6640457;89;20211;-77
2023/04/03 05:26:22;;;;;;;1999.90;999.90;;;2.20;99.90;;;;;;6648358;88;20230;-80
2023/04/03 05:36:23;;;;;;;1999.90;999.90;;;2.20;99.90;;;;;;6645353;88;20219;-80
2023/04/03 05:46:23;;;;;;;1999.90;999.90;;;2.30;99.90;;;;;;6649573;88;20185;-78
2023/04/03 05:56:24;;;;;;;1999.90;999.90;;;2.30;99.90;;;;;;6655493;88;20634;-77
2023/04/03 06:06:24;;;;;;;1999.90;999.90;;;2.40;99.90;;;;;;6639135;89;20306;-77
2023/04/03 06:16:25;;;;;;;1999.90;999.90;;;2.60;99.90;;;;;;6645163;88;20193;-78
2023/04/03 06:26:27;;;;;;;1999.90;999.90;;;2.80;99.90;;;;;;6633130;88;20212;-77
2023/04/03 06:36:27;;;;;;;1999.90;999.90;;;3.00;99.90;;;;;;6631300;89;20214;-79
2023/04/03 06:46:28;;;;;;;1999.90;999.90;;;3.50;99.90;;;;;;6640829;88;20250;-78
2023/04/03 06:56:29;;;;;;;1999.90;999.90;;;4.00;99.90;;;;;;6641533;89;20170;-80
2023/04/03 07:06:30;;;;;;;1999.90;999.90;;;4.40;99.90;;;;;;6651905;88;20196;-78
2023/04/03 07:26:35;;;;;;;1999.90;999.90;;;4.90;99.90;;;;;;6643636;88;20244;-77
2023/04/03 07:36:35;;;;;;;1999.90;999.90;;;5.10;99.90;;;;;;6646025;88;20732;-77
2023/04/03 07:46:37;;;;;;;1999.90;999.90;;;5.20;99.90;;;;;;6648333;88;20193;-77
2023/04/03 07:56:37;;;;;;;1999.90;999.90;;;5.90;99.90;;;;;;6644538;88;20766;-77
2023/04/03 08:06:38;;;;;;;1999.90;999.90;;;6.90;99.90;;;;;;6647551;88;20261;-77
2023/04/03 08:16:38;;;;;;;1999.90;999.90;;;7.40;99.90;;;;;;6649657;88;20220;-77
2023/04/03 08:26:39;;;;;;;1999.90;999.90;;;7.60;99.90;;;;;;6679428;88;20213;-77
2023/04/03 08:36:40;;;;;;;1999.90;999.90;;;6.80;99.90;;;;;;6667135;88;20231;-77
2023/04/03 08:47:03;;;;;;;1999.90;999.90;;;8.40;99.90;;;;;;6673814;88;20314;-77
2023/04/03 08:57:08;;;;;;;1999.90;999.90;;;8.30;99.90;;;;;;6660718;88;20663;-76
2023/04/03 09:07:16;;;;;;;1999.90;999.90;;;7.50;99.90;;;;;;6649250;88;20644;-77
2023/04/03 09:17:37;;;;;;;1999.90;999.90;;;8.90;99.90;;;;;;6699420;88;21094;-77
2023/04/03 09:27:37;;;;;;;1999.90;999.90;;;9.70;99.90;;;;;;6663699;88;20657;-78
2023/04/03 09:37:42;;;;;;;1999.90;999.90;;;10.50;99.90;;;;;;6644018;88;20218;-77
2023/04/03 09:47:44;;;;;;;1999.90;999.90;;;9.60;99.90;;;;;;6648175;88;20211;-78
2023/04/03 09:57:46;;;;;;;1999.90;999.90;;;8.80;99.90;;;;;;6652570;88;20340;-78
2023/04/03 10:07:46;;;;;;;1999.90;999.90;;;9.80;99.90;;;;;;6659397;88;20320;-79
2023/04/03 10:17:51;;;;;;;1999.90;999.90;;;11.30;97.60;;;;;;6657064;88;20197;-78
2023/04/03 10:27:59;;;;;;;1999.90;999.90;;;11.90;96.90;;;;;;6646598;88;23125;-76
2023/04/03 10:38:09;;;;;;;1999.90;999.90;;;10.50;95.50;;;;;;6644749;88;20681;-77
2023/04/03 10:48:39;;;;;;;1999.90;999.90;;;10.50;94.70;;;;;;6649502;88;20210;-78
2023/04/03 10:58:57;;;;;;;1999.90;999.90;;;10.10;93.30;;;;;;6636351;88;20296;-77
2023/04/03 11:09:03;;;;;;;1999.90;999.90;;;10.20;95.50;;;;;;6637894;88;20354;-78
2023/04/03 11:19:55;;;;;;;1999.90;999.90;;;11.50;94.40;;;;;;6646930;88;20193;-79
2023/04/03 11:29:56;;;;;;;1999.90;999.90;;;13.90;91.80;;;;;;6655588;88;20228;-78
2023/04/03 11:40:07;;;;;;;1999.90;999.90;;;14.20;90.70;;;;;;6644774;88;20625;-78
2023/04/03 11:50:33;;;;;;;1999.90;999.90;;;13.20;91.40;;;;;;6667033;88;20226;-79
2023/04/03 12:00:52;;;;;;;1999.90;999.90;;;15.00;87.10;;;;;;6650176;88;20348;-78
2023/04/03 12:11:11;;;;;;;1999.90;999.90;;;12.70;87.10;;;;;;6658933;88;20193;-80
2023/04/03 12:21:13;;;;;;;1999.90;999.90;;;14.40;85.30;;;;;;6641253;88;20391;-77
2023/04/03 12:31:15;;;;;;;1999.90;999.90;;;14.80;85.10;;;;;;6659705;88;20199;-78
2023/04/03 12:41:25;;;;;;;1999.90;999.90;;;15.60;85.00;;;;;;6663175;88;20220;-79
2023/04/03 12:51:40;;;;;;;1999.90;999.90;;;14.50;80.20;;;;;;6659756;88;20185;-78
2023/04/03 13:01:41;;;;;;;1999.90;999.90;;;14.90;81.10;;;;;;6659228;88;20680;-78
2023/04/03 13:11:44;;;;;;;1999.90;999.90;;;14.30;79.10;;;;;;6642771;88;20194;-79
2023/04/03 13:32:46;;;;;;;1999.90;999.90;;;12.80;82.50;;;;;;6712186;88;20228;-80
2023/04/03 13:43:03;;;;;;;1999.90;999.90;;;14.50;80.40;;;;;;6711448;88;20197;-80
2023/04/03 13:53:12;;;;;;;1999.90;999.90;;;14.60;80.10;;;;;;6710684;88;20243;-80
2023/04/03 14:03:26;;;;;;;1999.90;999.90;;;14.20;82.10;;;;;;6712458;88;20250;-80
2023/04/03 14:13:26;;;;;;;1999.90;999.90;;;13.90;82.20;;;;;;6710023;88;20190;-79
2023/04/03 14:23:27;;;;;;;1999.90;999.90;;;14.60;80.60;;;;;;6708399;88;20224;-80
2023/04/03 14:33:30;;;;;;;1999.90;999.90;;;12.70;82.00;;;;;;6711705;88;20211;-80
2023/04/03 14:43:31;;;;;;;1999.90;999.90;;;12.70;80.10;;;;;;6712017;88;20728;-80
2023/04/03 14:53:32;;;;;;;1999.90;999.90;;;13.10;82.20;;;;;;6706616;88;20214;-80
2023/04/03 15:03:33;;;;;;;1999.90;999.90;;;13.40;81.60;;;;;;6709368;88;20231;-80
2023/04/03 15:13:33;;;;;;;1999.90;999.90;;;13.00;78.50;;;;;;6709149;88;20233;-80
2023/04/03 15:23:34;;;;;;;1999.90;999.90;;;12.60;80.00;;;;;;6709024;88;20286;-80
2023/04/03 15:33:35;;;;;;;1999.90;999.90;;;12.50;79.50;;;;;;6711084;88;20185;-80
2023/04/03 15:43:36;;;;;;;1999.90;999.90;;;12.20;79.60;;;;;;6704758;88;20318;-78
2023/04/03 15:53:37;;;;;;;1999.90;999.90;;;12.00;81.20;;;;;;6705322;88;20235;-80
2023/04/03 16:03:44;;;;;;;1999.90;999.90;;;12.50;80.90;;;;;;6711616;88;20190;-80
2023/04/03 16:13:45;;;;;;;1999.90;999.90;;;11.90;82.60;;;;;;6726696;88;20284;-81
2023/04/03 16:23:46;;;;;;;1999.90;999.90;;;12.20;81.40;;;;;;6721765;88;20186;-79
2023/04/03 16:33:46;;;;;;;1999.90;999.90;;;12.10;81.70;;;;;;6720085;88;20210;-80
2023/04/03 16:43:47;;;;;;;1999.90;999.90;;;11.70;81.10;;;;;;6710829;88;20244;-79
2023/04/03 16:53:47;;;;;;;1999.90;999.90;;;11.30;82.90;;;;;;6713024;88;20271;-77
2023/04/03 17:03:48;;;;;;;1999.90;999.90;;;11.10;82.90;;;;;;6724407;88;20167;-81
2023/04/03 17:13:49;;;;;;;1999.90;999.90;;;10.70;85.70;;;;;;6719010;88;20298;-77
2023/04/03 17:23:57;;;;;;;1999.90;999.90;;;10.20;85.80;;;;;;6713747;88;20209;-81
2023/04/03 17:34:00;;;;;;;1999.90;999.90;;;9.80;83.80;;;;;;6716647;88;20187;-80
2023/04/03 17:44:01;;;;;;;1999.90;999.90;;;9.50;86.20;;;;;;6718357;88;20805;-79
2023/04/03 17:54:02;;;;;;;1999.90;999.90;;;9.20;86.50;;;;;;6719995;88;20229;-80
2023/04/03 18:04:04;;;;;;;1999.90;999.90;;;9.10;87.20;;;;;;6717462;88;20207;-80
2023/04/03 18:14:07;;;;;;;1999.90;999.90;;;8.60;87.60;;;;;;6716351;88;20158;-79
2023/04/03 18:24:12;;;;;;;1999.90;999.90;;;8.40;87.20;;;;;;6718376;88;20248;-81
2023/04/03 18:34:12;;;;;;;1999.90;999.90;;;8.10;87.30;;;;;;6717660;88;20244;-79
2023/04/03 18:44:17;;;;;;;1999.90;999.90;;;7.90;90.10;;;;;;6710855;88;20194;-79
2023/04/03 18:54:19;;;;;;;1999.90;999.90;;;7.70;90.40;;;;;;6716852;88;20210;-80
2023/04/03 19:04:20;;;;;;;1999.90;999.90;;;7.50;90.70;;;;;;6714569;88;20203;-78
2023/04/03 19:14:20;;;;;;;1999.90;999.90;;;7.40;91.50;;;;;;6714453;77;20174;-79
2023/04/03 19:24:21;;;;;;;1999.90;999.90;;;7.20;91.80;;;;;;6725722;88;20229;-77
2023/04/03 19:34:22;;;;;;;1999.90;999.90;;;6.80;91.90;;;;;;6707680;88;20641;-80
2023/04/03 19:44:22;;;;;;;1999.90;999.90;;;6.50;92.70;;;;;;6725111;88;20197;-79
2023/04/03 19:54:23;;;;;;;1999.90;999.90;;;6.50;92.90;;;;;;6745300;88;20200;-77
2023/04/03 20:04:24;;;;;;;1999.90;999.90;;;6.20;93.10;;;;;;6749723;88;20218;-78
2023/04/03 20:14:24;;;;;;;1999.90;999.90;;;6.10;93.40;;;;;;6745419;88;20575;-77
2023/04/03 20:24:27;;;;;;;1999.90;999.90;;;5.90;94.20;;;;;;6744726;88;20236;-80
2023/04/03 20:34:28;;;;;;;1999.90;999.90;;;5.60;94.20;;;;;;6740795;88;20220;-79
2023/04/03 20:44:29;;;;;;;1999.90;999.90;;;5.40;94.60;;;;;;6743711;88;20780;-77
2023/04/03 20:54:30;;;;;;;1999.90;999.90;;;5.30;94.00;;;;;;6747618;88;20336;-77
2023/04/03 21:04:47;;;;;;;1999.90;999.90;;;5.20;94.40;;;;;;6741886;88;20267;-78
2023/04/03 21:15:26;;;;;;;1999.90;999.90;;;5.00;94.20;;;;;;6744559;88;20192;-77
2023/04/03 21:25:27;;;;;;;1999.90;999.90;;;5.00;94.40;;;;;;6746034;88;20413;-79
2023/04/03 21:35:27;;;;;;;1999.90;999.90;;;4.90;95.50;;;;;;6756638;88;20202;-78
2023/04/03 21:45:28;;;;;;;1999.90;999.90;;;4.70;96.00;;;;;;6756860;88;20619;-78
2023/04/03 21:55:28;;;;;;;1999.90;999.90;;;4.50;95.70;;;;;;6756840;88;20604;-79
2023/04/03 22:05:30;;;;;;;1999.90;999.90;;;4.40;96.00;;;;;;6736964;88;20200;-79
2023/04/03 22:15:36;;;;;;;1999.90;999.90;;;4.10;97.20;;;;;;6755279;88;20234;-79
2023/04/03 22:25:36;;;;;;;1999.90;999.90;;;4.10;97.70;;;;;;6756456;88;20324;-80
2023/04/03 22:35:50;;;;;;;1999.90;999.90;;;4.00;97.90;;;;;;6755637;88;20295;-80
2023/04/03 22:45:51;;;;;;;1999.90;999.90;;;3.70;98.70;;;;;;6738826;88;20303;-79
2023/04/03 22:55:55;;;;;;;1999.90;999.90;;;3.60;99.00;;;;;;6737608;88;20260;-79
2023/04/03 23:05:56;;;;;;;1999.90;999.90;;;3.40;99.90;;;;;;6737515;88;20192;-79
2023/04/03 23:15:58;;;;;;;1999.90;999.90;;;3.20;99.90;;;;;;6737614;88;20575;-79
2023/04/03 23:26:01;;;;;;;1999.90;999.90;;;3.20;99.90;;;;;;6737280;88;20499;-79
2023/04/03 23:36:06;;;;;;;1999.90;999.90;;;3.10;99.90;;;;;;6744140;88;20226;-79
2023/04/03 23:46:07;;;;;;;1999.90;999.90;;;3.10;99.90;;;;;;6734514;88;20331;-79
2023/04/03 23:56:11;;;;;;;1999.90;999.90;;;3.00;99.90;;;;;;6738015;88;20664;-79
